sensor_id;sensor_type;location;lat;lon;timestamp;temperature;humidity
44431;DHT22;30135;47.866;-4.222;2022-07-06T00:01:58;18.30;75.60
44431;DHT22;30135;47.866;-4.222;2022-07-06T00:04:24;18.30;75.80
44431;DHT22;30135;47.866;-4.222;2022-07-06T00:06:50;18.30;76.00
44431;DHT22;30135;47.866;-4.222;2022-07-06T00:09:16;18.20;76.20
44431;DHT22;30135;47.866;-4.222;2022-07-06T00:11:42;18.20;76.40
44431;DHT22;30135;47.866;-4.222;2022-07-06T00:14:08;18.20;76.50
44431;DHT22;30135;47.866;-4.222;2022-07-06T00:16:34;18.30;76.60
44431;DHT22;30135;47.866;-4.222;2022-07-06T00:19:00;18.20;76.70
44431;DHT22;30135;47.866;-4.222;2022-07-06T00:21:26;18.20;76.80
44431;DHT22;30135;47.866;-4.222;2022-07-06T00:23:52;18.20;76.80
44431;DHT22;30135;47.866;-4.222;2022-07-06T00:26:19;18.20;77.20
44431;DHT22;30135;47.866;-4.222;2022-07-06T00:28:45;18.20;77.40
44431;DHT22;30135;47.866;-4.222;2022-07-06T00:31:11;18.20;77.50
44431;DHT22;30135;47.866;-4.222;2022-07-06T00:33:37;18.20;77.70
44431;DHT22;30135;47.866;-4.222;2022-07-06T00:36:04;18.10;77.70
44431;DHT22;30135;47.866;-4.222;2022-07-06T00:38:39;18.20;77.80
44431;DHT22;30135;47.866;-4.222;2022-07-06T00:41:05;18.20;77.90
44431;DHT22;30135;47.866;-4.222;2022-07-06T00:43:54;18.10;77.90
44431;DHT22;30135;47.866;-4.222;2022-07-06T00:46:27;18.10;78.10
44431;DHT22;30135;47.866;-4.222;2022-07-06T00:48:54;18.10;78.00
44431;DHT22;30135;47.866;-4.222;2022-07-06T00:51:23;18.10;78.00
44431;DHT22;30135;47.866;-4.222;2022-07-06T00:53:52;18.00;78.20
44431;DHT22;30135;47.866;-4.222;2022-07-06T00:56:20;18.00;78.30
44431;DHT22;30135;47.866;-4.222;2022-07-06T00:58:46;18.00;78.40
44431;DHT22;30135;47.866;-4.222;2022-07-06T01:01:12;17.90;78.50
44431;DHT22;30135;47.866;-4.222;2022-07-06T01:03:38;17.90;78.70
44431;DHT22;30135;47.866;-4.222;2022-07-06T01:06:05;18.00;78.90
44431;DHT22;30135;47.866;-4.222;2022-07-06T01:08:32;17.90;78.90
44431;DHT22;30135;47.866;-4.222;2022-07-06T01:10:58;17.90;79.10
44431;DHT22;30135;47.866;-4.222;2022-07-06T01:13:25;17.90;79.30
44431;DHT22;30135;47.866;-4.222;2022-07-06T01:15:51;17.90;79.40
44431;DHT22;30135;47.866;-4.222;2022-07-06T01:18:17;17.90;79.50
44431;DHT22;30135;47.866;-4.222;2022-07-06T01:20:43;17.80;80.40
44431;DHT22;30135;47.866;-4.222;2022-07-06T01:23:09;17.80;79.70
44431;DHT22;30135;47.866;-4.222;2022-07-06T01:25:36;17.80;79.90
44431;DHT22;30135;47.866;-4.222;2022-07-06T01:28:02;17.80;80.00
44431;DHT22;30135;47.866;-4.222;2022-07-06T01:30:28;17.70;80.00
44431;DHT22;30135;47.866;-4.222;2022-07-06T01:32:54;17.70;80.20
44431;DHT22;30135;47.866;-4.222;2022-07-06T01:35:21;17.70;80.40
44431;DHT22;30135;47.866;-4.222;2022-07-06T01:37:47;17.70;80.60
44431;DHT22;30135;47.866;-4.222;2022-07-06T01:40:13;17.70;80.70
44431;DHT22;30135;47.866;-4.222;2022-07-06T01:42:40;17.70;80.80
44431;DHT22;30135;47.866;-4.222;2022-07-06T01:45:07;17.70;81.00
44431;DHT22;30135;47.866;-4.222;2022-07-06T01:47:33;17.70;81.10
44431;DHT22;30135;47.866;-4.222;2022-07-06T01:50:00;17.70;81.20
44431;DHT22;30135;47.866;-4.222;2022-07-06T01:52:28;17.70;81.20
44431;DHT22;30135;47.866;-4.222;2022-07-06T01:54:55;17.60;81.20
44431;DHT22;30135;47.866;-4.222;2022-07-06T01:57:22;17.60;81.30
44431;DHT22;30135;47.866;-4.222;2022-07-06T01:59:47;17.60;81.40
44431;DHT22;30135;47.866;-4.222;2022-07-06T02:02:13;17.60;81.40
44431;DHT22;30135;47.866;-4.222;2022-07-06T02:04:40;17.60;81.50
44431;DHT22;30135;47.866;-4.222;2022-07-06T02:07:06;17.60;81.60
44431;DHT22;30135;47.866;-4.222;2022-07-06T02:09:32;17.60;81.60
44431;DHT22;30135;47.866;-4.222;2022-07-06T02:11:58;17.50;81.60
44431;DHT22;30135;47.866;-4.222;2022-07-06T02:14:24;17.50;81.70
44431;DHT22;30135;47.866;-4.222;2022-07-06T02:16:50;17.50;81.70
44431;DHT22;30135;47.866;-4.222;2022-07-06T02:19:16;17.50;81.70
44431;DHT22;30135;47.866;-4.222;2022-07-06T02:21:42;17.40;81.60
44431;DHT22;30135;47.866;-4.222;2022-07-06T02:24:08;17.40;81.70
44431;DHT22;30135;47.866;-4.222;2022-07-06T02:26:34;17.40;81.80
44431;DHT22;30135;47.866;-4.222;2022-07-06T02:28:59;17.40;82.00
44431;DHT22;30135;47.866;-4.222;2022-07-06T02:31:25;17.40;82.10
44431;DHT22;30135;47.866;-4.222;2022-07-06T02:33:51;17.40;82.20
44431;DHT22;30135;47.866;-4.222;2022-07-06T02:36:17;17.40;82.30
44431;DHT22;30135;47.866;-4.222;2022-07-06T02:38:43;17.30;82.30
44431;DHT22;30135;47.866;-4.222;2022-07-06T02:41:09;17.30;82.30
44431;DHT22;30135;47.866;-4.222;2022-07-06T02:43:37;17.30;82.40
44431;DHT22;30135;47.866;-4.222;2022-07-06T02:46:04;17.30;82.50
44431;DHT22;30135;47.866;-4.222;2022-07-06T02:48:31;17.30;82.50
44431;DHT22;30135;47.866;-4.222;2022-07-06T02:50:57;17.30;82.60
44431;DHT22;30135;47.866;-4.222;2022-07-06T02:53:24;17.20;82.70
44431;DHT22;30135;47.866;-4.222;2022-07-06T02:55:50;17.20;82.80
44431;DHT22;30135;47.866;-4.222;2022-07-06T02:58:16;17.20;82.90
44431;DHT22;30135;47.866;-4.222;2022-07-06T03:00:42;17.20;83.00
44431;DHT22;30135;47.866;-4.222;2022-07-06T03:03:08;17.20;83.10
44431;DHT22;30135;47.866;-4.222;2022-07-06T03:05:36;17.20;83.20
44431;DHT22;30135;47.866;-4.222;2022-07-06T03:08:01;17.20;83.10
44431;DHT22;30135;47.866;-4.222;2022-07-06T03:10:28;17.10;83.90
44431;DHT22;30135;47.866;-4.222;2022-07-06T03:12:53;17.10;83.10
44431;DHT22;30135;47.866;-4.222;2022-07-06T03:15:20;17.10;83.30
44431;DHT22;30135;47.866;-4.222;2022-07-06T03:17:46;17.10;83.50
44431;DHT22;30135;47.866;-4.222;2022-07-06T03:20:12;17.00;83.40
44431;DHT22;30135;47.866;-4.222;2022-07-06T03:22:39;17.00;83.60
44431;DHT22;30135;47.866;-4.222;2022-07-06T03:25:05;17.00;83.70
44431;DHT22;30135;47.866;-4.222;2022-07-06T03:27:31;17.00;83.90
44431;DHT22;30135;47.866;-4.222;2022-07-06T03:29:59;17.00;83.90
44431;DHT22;30135;47.866;-4.222;2022-07-06T03:32:25;17.00;84.00
44431;DHT22;30135;47.866;-4.222;2022-07-06T03:34:51;17.00;84.00
44431;DHT22;30135;47.866;-4.222;2022-07-06T03:37:16;17.00;84.10
44431;DHT22;30135;47.866;-4.222;2022-07-06T03:39:43;17.00;84.10
44431;DHT22;30135;47.866;-4.222;2022-07-06T03:42:09;17.00;84.20
44431;DHT22;30135;47.866;-4.222;2022-07-06T03:44:34;17.00;84.30
44431;DHT22;30135;47.866;-4.222;2022-07-06T03:47:00;16.90;84.30
44431;DHT22;30135;47.866;-4.222;2022-07-06T03:49:26;16.90;84.30
44431;DHT22;30135;47.866;-4.222;2022-07-06T03:51:54;16.90;84.40
44431;DHT22;30135;47.866;-4.222;2022-07-06T03:54:20;16.90;84.60
44431;DHT22;30135;47.866;-4.222;2022-07-06T03:56:46;16.90;84.60
44431;DHT22;30135;47.866;-4.222;2022-07-06T03:59:12;16.90;84.60
44431;DHT22;30135;47.866;-4.222;2022-07-06T04:01:38;16.80;84.50
44431;DHT22;30135;47.866;-4.222;2022-07-06T04:04:04;16.80;84.50
44431;DHT22;30135;47.866;-4.222;2022-07-06T04:06:30;16.80;84.50
44431;DHT22;30135;47.866;-4.222;2022-07-06T04:08:56;16.80;84.60
44431;DHT22;30135;47.866;-4.222;2022-07-06T04:11:22;16.80;84.70
44431;DHT22;30135;47.866;-4.222;2022-07-06T04:13:47;16.70;84.50
44431;DHT22;30135;47.866;-4.222;2022-07-06T04:16:13;16.70;84.40
44431;DHT22;30135;47.866;-4.222;2022-07-06T04:18:39;16.70;84.40
44431;DHT22;30135;47.866;-4.222;2022-07-06T04:21:05;16.70;84.30
44431;DHT22;30135;47.866;-4.222;2022-07-06T04:23:31;16.60;84.30
44431;DHT22;30135;47.866;-4.222;2022-07-06T04:25:57;16.60;84.40
44431;DHT22;30135;47.866;-4.222;2022-07-06T04:28:24;16.60;84.40
44431;DHT22;30135;47.866;-4.222;2022-07-06T04:30:50;16.50;84.30
44431;DHT22;30135;47.866;-4.222;2022-07-06T04:33:16;16.60;84.40
44431;DHT22;30135;47.866;-4.222;2022-07-06T04:35:42;16.50;84.30
44431;DHT22;30135;47.866;-4.222;2022-07-06T04:38:08;16.50;84.30
44431;DHT22;30135;47.866;-4.222;2022-07-06T04:40:34;16.50;84.30
44431;DHT22;30135;47.866;-4.222;2022-07-06T04:43:00;16.50;84.40
44431;DHT22;30135;47.866;-4.222;2022-07-06T04:45:26;16.40;84.40
44431;DHT22;30135;47.866;-4.222;2022-07-06T04:47:52;16.40;84.60
44431;DHT22;30135;47.866;-4.222;2022-07-06T04:50:18;16.40;84.70
44431;DHT22;30135;47.866;-4.222;2022-07-06T04:52:44;16.40;84.80
44431;DHT22;30135;47.866;-4.222;2022-07-06T04:55:15;16.40;84.90
44431;DHT22;30135;47.866;-4.222;2022-07-06T04:57:41;16.40;85.00
44431;DHT22;30135;47.866;-4.222;2022-07-06T05:00:07;16.40;85.10
44431;DHT22;30135;47.866;-4.222;2022-07-06T05:02:34;16.30;85.20
44431;DHT22;30135;47.866;-4.222;2022-07-06T05:05:00;16.40;85.40
44431;DHT22;30135;47.866;-4.222;2022-07-06T05:07:26;16.40;85.50
44431;DHT22;30135;47.866;-4.222;2022-07-06T05:09:55;16.30;85.40
44431;DHT22;30135;47.866;-4.222;2022-07-06T05:12:21;16.30;85.50
44431;DHT22;30135;47.866;-4.222;2022-07-06T05:14:47;16.30;85.50
44431;DHT22;30135;47.866;-4.222;2022-07-06T05:17:12;16.30;85.70
44431;DHT22;30135;47.866;-4.222;2022-07-06T05:19:38;16.30;85.80
44431;DHT22;30135;47.866;-4.222;2022-07-06T05:22:04;16.30;86.00
44431;DHT22;30135;47.866;-4.222;2022-07-06T05:24:30;16.30;86.10
44431;DHT22;30135;47.866;-4.222;2022-07-06T05:26:56;16.30;86.30
44431;DHT22;30135;47.866;-4.222;2022-07-06T05:29:22;16.30;86.40
44431;DHT22;30135;47.866;-4.222;2022-07-06T05:31:48;16.30;86.50
44431;DHT22;30135;47.866;-4.222;2022-07-06T05:34:13;16.30;86.70
44431;DHT22;30135;47.866;-4.222;2022-07-06T05:36:39;16.40;87.00
44431;DHT22;30135;47.866;-4.222;2022-07-06T05:39:05;16.40;87.20
44431;DHT22;30135;47.866;-4.222;2022-07-06T05:41:31;16.40;87.40
44431;DHT22;30135;47.866;-4.222;2022-07-06T05:43:57;16.40;87.50
44431;DHT22;30135;47.866;-4.222;2022-07-06T05:46:23;16.40;87.70
44431;DHT22;30135;47.866;-4.222;2022-07-06T05:48:49;16.40;87.80
44431;DHT22;30135;47.866;-4.222;2022-07-06T05:51:33;16.40;87.90
44431;DHT22;30135;47.866;-4.222;2022-07-06T05:53:59;16.40;87.90
44431;DHT22;30135;47.866;-4.222;2022-07-06T05:56:26;16.50;88.20
44431;DHT22;30135;47.866;-4.222;2022-07-06T05:58:52;16.50;88.30
44431;DHT22;30135;47.866;-4.222;2022-07-06T06:01:18;16.50;88.40
44431;DHT22;30135;47.866;-4.222;2022-07-06T06:03:45;16.50;88.50
44431;DHT22;30135;47.866;-4.222;2022-07-06T06:06:11;16.50;88.60
44431;DHT22;30135;47.866;-4.222;2022-07-06T06:08:37;16.60;89.00
44431;DHT22;30135;47.866;-4.222;2022-07-06T06:11:04;16.60;89.60
44431;DHT22;30135;47.866;-4.222;2022-07-06T06:13:30;16.60;90.00
44431;DHT22;30135;47.866;-4.222;2022-07-06T06:15:56;16.70;90.20
44431;DHT22;30135;47.866;-4.222;2022-07-06T06:18:22;16.70;90.30
44431;DHT22;30135;47.866;-4.222;2022-07-06T06:20:48;16.80;90.40
44431;DHT22;30135;47.866;-4.222;2022-07-06T06:23:15;16.80;90.90
44431;DHT22;30135;47.866;-4.222;2022-07-06T06:25:41;16.80;90.60
44431;DHT22;30135;47.866;-4.222;2022-07-06T06:28:08;16.90;90.70
44431;DHT22;30135;47.866;-4.222;2022-07-06T06:30:36;16.90;90.80
44431;DHT22;30135;47.866;-4.222;2022-07-06T06:33:15;17.00;90.90
44431;DHT22;30135;47.866;-4.222;2022-07-06T06:35:47;17.00;91.00
44431;DHT22;30135;47.866;-4.222;2022-07-06T06:38:16;17.00;91.00
44431;DHT22;30135;47.866;-4.222;2022-07-06T06:40:43;17.10;91.00
44431;DHT22;30135;47.866;-4.222;2022-07-06T06:43:09;17.10;91.10
44431;DHT22;30135;47.866;-4.222;2022-07-06T06:45:36;17.10;91.20
44431;DHT22;30135;47.866;-4.222;2022-07-06T06:48:02;17.20;91.40
44431;DHT22;30135;47.866;-4.222;2022-07-06T06:50:28;17.20;91.30
44431;DHT22;30135;47.866;-4.222;2022-07-06T06:52:54;17.30;91.20
44431;DHT22;30135;47.866;-4.222;2022-07-06T06:55:20;17.40;91.30
44431;DHT22;30135;47.866;-4.222;2022-07-06T06:57:46;17.40;91.20
44431;DHT22;30135;47.866;-4.222;2022-07-06T07:00:13;17.50;91.30
44431;DHT22;30135;47.866;-4.222;2022-07-06T07:02:39;17.50;91.30
44431;DHT22;30135;47.866;-4.222;2022-07-06T07:05:06;17.60;91.30
44431;DHT22;30135;47.866;-4.222;2022-07-06T07:07:33;17.60;91.20
44431;DHT22;30135;47.866;-4.222;2022-07-06T07:09:59;17.70;91.10
44431;DHT22;30135;47.866;-4.222;2022-07-06T07:12:25;17.70;91.00
44431;DHT22;30135;47.866;-4.222;2022-07-06T07:14:52;17.80;91.10
44431;DHT22;30135;47.866;-4.222;2022-07-06T07:17:18;17.80;90.90
44431;DHT22;30135;47.866;-4.222;2022-07-06T07:19:44;17.80;90.90
44431;DHT22;30135;47.866;-4.222;2022-07-06T07:22:10;17.90;90.80
44431;DHT22;30135;47.866;-4.222;2022-07-06T07:24:36;17.90;90.70
44431;DHT22;30135;47.866;-4.222;2022-07-06T07:27:02;18.00;90.50
44431;DHT22;30135;47.866;-4.222;2022-07-06T07:29:28;18.00;90.50
44431;DHT22;30135;47.866;-4.222;2022-07-06T07:31:54;18.00;90.40
44431;DHT22;30135;47.866;-4.222;2022-07-06T07:34:19;18.10;90.30
44431;DHT22;30135;47.866;-4.222;2022-07-06T07:36:45;18.10;90.20
44431;DHT22;30135;47.866;-4.222;2022-07-06T07:39:12;18.10;90.20
44431;DHT22;30135;47.866;-4.222;2022-07-06T07:41:38;18.20;90.10
44431;DHT22;30135;47.866;-4.222;2022-07-06T07:44:04;18.20;90.10
44431;DHT22;30135;47.866;-4.222;2022-07-06T07:46:30;18.30;90.00
44431;DHT22;30135;47.866;-4.222;2022-07-06T07:48:57;18.30;89.80
44431;DHT22;30135;47.866;-4.222;2022-07-06T07:51:23;18.40;89.70
44431;DHT22;30135;47.866;-4.222;2022-07-06T07:53:49;18.40;89.30
44431;DHT22;30135;47.866;-4.222;2022-07-06T07:56:15;18.40;88.90
44431;DHT22;30135;47.866;-4.222;2022-07-06T07:58:40;18.50;88.40
44431;DHT22;30135;47.866;-4.222;2022-07-06T08:01:06;18.50;87.90
44431;DHT22;30135;47.866;-4.222;2022-07-06T08:03:32;18.60;87.80
44431;DHT22;30135;47.866;-4.222;2022-07-06T08:05:58;18.60;87.50
44431;DHT22;30135;47.866;-4.222;2022-07-06T08:08:25;18.60;87.40
44431;DHT22;30135;47.866;-4.222;2022-07-06T08:10:51;18.70;87.40
44431;DHT22;30135;47.866;-4.222;2022-07-06T08:13:17;18.70;87.40
44431;DHT22;30135;47.866;-4.222;2022-07-06T08:15:43;18.80;87.50
44431;DHT22;30135;47.866;-4.222;2022-07-06T08:18:09;18.80;87.50
44431;DHT22;30135;47.866;-4.222;2022-07-06T08:20:38;18.80;87.00
44431;DHT22;30135;47.866;-4.222;2022-07-06T08:23:04;18.90;86.50
44431;DHT22;30135;47.866;-4.222;2022-07-06T08:25:31;18.90;86.30
44431;DHT22;30135;47.866;-4.222;2022-07-06T08:27:57;18.90;86.20
44431;DHT22;30135;47.866;-4.222;2022-07-06T08:30:23;19.00;86.20
44431;DHT22;30135;47.866;-4.222;2022-07-06T08:32:49;19.00;86.20
44431;DHT22;30135;47.866;-4.222;2022-07-06T08:35:16;19.10;86.00
44431;DHT22;30135;47.866;-4.222;2022-07-06T08:37:42;19.10;85.90
44431;DHT22;30135;47.866;-4.222;2022-07-06T08:40:08;19.10;85.90
44431;DHT22;30135;47.866;-4.222;2022-07-06T08:42:35;19.20;85.80
44431;DHT22;30135;47.866;-4.222;2022-07-06T08:45:06;19.20;85.50
44431;DHT22;30135;47.866;-4.222;2022-07-06T08:47:35;19.20;85.50
44431;DHT22;30135;47.866;-4.222;2022-07-06T08:50:04;19.30;85.60
44431;DHT22;30135;47.866;-4.222;2022-07-06T08:52:31;19.30;85.40
44431;DHT22;30135;47.866;-4.222;2022-07-06T08:54:58;19.40;85.20
44431;DHT22;30135;47.866;-4.222;2022-07-06T08:57:25;19.40;84.70
44431;DHT22;30135;47.866;-4.222;2022-07-06T08:59:51;19.40;84.40
44431;DHT22;30135;47.866;-4.222;2022-07-06T09:02:17;19.50;84.00
44431;DHT22;30135;47.866;-4.222;2022-07-06T09:04:44;19.50;83.50
44431;DHT22;30135;47.866;-4.222;2022-07-06T09:07:12;19.60;82.70
44431;DHT22;30135;47.866;-4.222;2022-07-06T09:09:40;19.60;82.50
44431;DHT22;30135;47.866;-4.222;2022-07-06T09:12:11;19.70;82.00
44431;DHT22;30135;47.866;-4.222;2022-07-06T09:14:38;19.70;81.70
44431;DHT22;30135;47.866;-4.222;2022-07-06T09:17:06;19.80;81.70
44431;DHT22;30135;47.866;-4.222;2022-07-06T09:19:33;19.80;81.50
44431;DHT22;30135;47.866;-4.222;2022-07-06T09:22:01;19.90;81.50
44431;DHT22;30135;47.866;-4.222;2022-07-06T09:24:28;20.00;81.40
44431;DHT22;30135;47.866;-4.222;2022-07-06T09:26:57;20.00;80.50
44431;DHT22;30135;47.866;-4.222;2022-07-06T09:29:31;20.10;79.80
44431;DHT22;30135;47.866;-4.222;2022-07-06T09:31:58;20.20;78.90
44431;DHT22;30135;47.866;-4.222;2022-07-06T09:34:43;20.20;79.00
44431;DHT22;30135;47.866;-4.222;2022-07-06T09:37:11;20.30;78.10
44431;DHT22;30135;47.866;-4.222;2022-07-06T09:39:38;20.40;78.90
44431;DHT22;30135;47.866;-4.222;2022-07-06T09:42:05;20.40;77.30
44431;DHT22;30135;47.866;-4.222;2022-07-06T09:44:37;20.50;77.00
44431;DHT22;30135;47.866;-4.222;2022-07-06T09:47:07;20.60;76.90
44431;DHT22;30135;47.866;-4.222;2022-07-06T09:49:34;20.60;76.90
44431;DHT22;30135;47.866;-4.222;2022-07-06T09:52:07;20.70;76.50
44431;DHT22;30135;47.866;-4.222;2022-07-06T09:54:35;20.80;76.20
44431;DHT22;30135;47.866;-4.222;2022-07-06T09:57:03;20.80;75.50
44431;DHT22;30135;47.866;-4.222;2022-07-06T09:59:30;20.90;75.10
44431;DHT22;30135;47.866;-4.222;2022-07-06T10:02:00;20.90;74.70
44431;DHT22;30135;47.866;-4.222;2022-07-06T10:04:28;21.00;74.70
44431;DHT22;30135;47.866;-4.222;2022-07-06T10:06:56;21.10;74.10
44431;DHT22;30135;47.866;-4.222;2022-07-06T10:09:24;21.20;73.70
44431;DHT22;30135;47.866;-4.222;2022-07-06T10:11:56;21.30;73.20
44431;DHT22;30135;47.866;-4.222;2022-07-06T10:14:28;21.30;72.80
44431;DHT22;30135;47.866;-4.222;2022-07-06T10:17:01;21.30;72.80
44431;DHT22;30135;47.866;-4.222;2022-07-06T10:19:29;21.40;72.50
44431;DHT22;30135;47.866;-4.222;2022-07-06T10:22:00;21.40;72.00
44431;DHT22;30135;47.866;-4.222;2022-07-06T10:24:28;21.50;72.40
44431;DHT22;30135;47.866;-4.222;2022-07-06T10:26:55;21.50;72.20
44431;DHT22;30135;47.866;-4.222;2022-07-06T10:29:21;21.60;72.10
44431;DHT22;30135;47.866;-4.222;2022-07-06T10:31:48;21.70;71.60
44431;DHT22;30135;47.866;-4.222;2022-07-06T10:34:18;21.70;71.00
44431;DHT22;30135;47.866;-4.222;2022-07-06T10:36:52;21.80;71.10
44431;DHT22;30135;47.866;-4.222;2022-07-06T10:39:35;21.80;70.80
44431;DHT22;30135;47.866;-4.222;2022-07-06T10:45:11;21.90;70.10
44431;DHT22;30135;47.866;-4.222;2022-07-06T10:47:42;22.00;69.90
44431;DHT22;30135;47.866;-4.222;2022-07-06T10:50:08;22.10;70.00
44431;DHT22;30135;47.866;-4.222;2022-07-06T10:55:32;22.20;69.60
44431;DHT22;30135;47.866;-4.222;2022-07-06T10:57:59;22.30;70.20
44431;DHT22;30135;47.866;-4.222;2022-07-06T11:00:26;22.30;69.30
44431;DHT22;30135;47.866;-4.222;2022-07-06T11:02:57;22.30;68.70
44431;DHT22;30135;47.866;-4.222;2022-07-06T11:05:42;22.30;68.50
44431;DHT22;30135;47.866;-4.222;2022-07-06T11:08:11;22.20;68.10
44431;DHT22;30135;47.866;-4.222;2022-07-06T11:10:46;22.30;68.40
44431;DHT22;30135;47.866;-4.222;2022-07-06T11:13:33;22.40;68.10
44431;DHT22;30135;47.866;-4.222;2022-07-06T11:16:08;22.50;67.90
44431;DHT22;30135;47.866;-4.222;2022-07-06T11:18:42;22.60;67.80
44431;DHT22;30135;47.866;-4.222;2022-07-06T11:21:17;22.70;67.70
44431;DHT22;30135;47.866;-4.222;2022-07-06T11:23:50;22.80;67.80
44431;DHT22;30135;47.866;-4.222;2022-07-06T11:26:17;22.90;67.60
44431;DHT22;30135;47.866;-4.222;2022-07-06T11:28:47;23.10;67.10
44431;DHT22;30135;47.866;-4.222;2022-07-06T11:31:15;23.10;66.30
44431;DHT22;30135;47.866;-4.222;2022-07-06T11:33:41;23.20;66.30
44431;DHT22;30135;47.866;-4.222;2022-07-06T11:36:18;23.30;65.80
44431;DHT22;30135;47.866;-4.222;2022-07-06T11:38:47;23.40;65.20
44431;DHT22;30135;47.866;-4.222;2022-07-06T11:41:15;23.50;65.20
44431;DHT22;30135;47.866;-4.222;2022-07-06T11:43:42;23.60;64.90
44431;DHT22;30135;47.866;-4.222;2022-07-06T11:46:24;23.60;65.10
44431;DHT22;30135;47.866;-4.222;2022-07-06T11:48:58;23.70;64.00
44431;DHT22;30135;47.866;-4.222;2022-07-06T11:51:31;23.70;63.50
44431;DHT22;30135;47.866;-4.222;2022-07-06T11:54:01;23.80;63.30
44431;DHT22;30135;47.866;-4.222;2022-07-06T11:56:33;23.80;63.50
44431;DHT22;30135;47.866;-4.222;2022-07-06T11:59:00;23.90;63.20
44431;DHT22;30135;47.866;-4.222;2022-07-06T12:01:28;24.00;63.10
44431;DHT22;30135;47.866;-4.222;2022-07-06T12:04:01;24.00;62.70
44431;DHT22;30135;47.866;-4.222;2022-07-06T12:06:30;24.00;62.40
44431;DHT22;30135;47.866;-4.222;2022-07-06T12:08:58;24.10;62.30
44431;DHT22;30135;47.866;-4.222;2022-07-06T12:11:33;24.10;61.80
44431;DHT22;30135;47.866;-4.222;2022-07-06T12:14:02;24.10;61.50
44431;DHT22;30135;47.866;-4.222;2022-07-06T12:16:38;24.10;61.60
44431;DHT22;30135;47.866;-4.222;2022-07-06T12:19:05;24.20;61.40
44431;DHT22;30135;47.866;-4.222;2022-07-06T12:21:33;24.20;61.00
44431;DHT22;30135;47.866;-4.222;2022-07-06T12:24:00;24.30;60.80
44431;DHT22;30135;47.866;-4.222;2022-07-06T12:26:28;24.30;60.60
44431;DHT22;30135;47.866;-4.222;2022-07-06T12:29:06;24.30;60.30
44431;DHT22;30135;47.866;-4.222;2022-07-06T12:31:56;24.40;60.10
44431;DHT22;30135;47.866;-4.222;2022-07-06T12:34:27;24.40;59.90
44431;DHT22;30135;47.866;-4.222;2022-07-06T12:37:02;24.40;59.70
44431;DHT22;30135;47.866;-4.222;2022-07-06T12:39:31;24.50;59.70
44431;DHT22;30135;47.866;-4.222;2022-07-06T12:42:03;24.50;60.00
44431;DHT22;30135;47.866;-4.222;2022-07-06T12:44:32;24.70;59.70
44431;DHT22;30135;47.866;-4.222;2022-07-06T12:47:11;24.80;59.60
44431;DHT22;30135;47.866;-4.222;2022-07-06T12:49:39;24.70;59.20
44431;DHT22;30135;47.866;-4.222;2022-07-06T12:52:10;24.80;59.30
44431;DHT22;30135;47.866;-4.222;2022-07-06T12:54:46;24.90;59.40
44431;DHT22;30135;47.866;-4.222;2022-07-06T12:57:21;24.90;59.10
44431;DHT22;30135;47.866;-4.222;2022-07-06T13:02:26;24.90;58.70
44431;DHT22;30135;47.866;-4.222;2022-07-06T13:07:26;24.80;58.70
44431;DHT22;30135;47.866;-4.222;2022-07-06T13:09:54;24.70;58.80
44431;DHT22;30135;47.866;-4.222;2022-07-06T13:12:21;24.70;58.80
44431;DHT22;30135;47.866;-4.222;2022-07-06T13:14:48;24.70;59.30
44431;DHT22;30135;47.866;-4.222;2022-07-06T13:17:15;24.70;59.10
44431;DHT22;30135;47.866;-4.222;2022-07-06T13:19:41;24.80;59.00
44431;DHT22;30135;47.866;-4.222;2022-07-06T13:22:07;24.80;59.00
44431;DHT22;30135;47.866;-4.222;2022-07-06T13:24:34;24.80;58.80
44431;DHT22;30135;47.866;-4.222;2022-07-06T13:27:00;24.90;58.40
44431;DHT22;30135;47.866;-4.222;2022-07-06T13:29:26;24.90;58.10
44431;DHT22;30135;47.866;-4.222;2022-07-06T13:31:52;24.90;58.10
44431;DHT22;30135;47.866;-4.222;2022-07-06T13:34:18;25.00;58.10
44431;DHT22;30135;47.866;-4.222;2022-07-06T13:36:44;25.00;58.00
44431;DHT22;30135;47.866;-4.222;2022-07-06T13:39:10;25.10;58.20
44431;DHT22;30135;47.866;-4.222;2022-07-06T13:41:36;25.00;58.00
44431;DHT22;30135;47.866;-4.222;2022-07-06T13:44:02;25.00;58.10
44431;DHT22;30135;47.866;-4.222;2022-07-06T13:46:29;25.00;58.30
44431;DHT22;30135;47.866;-4.222;2022-07-06T13:48:57;25.00;57.80
44431;DHT22;30135;47.866;-4.222;2022-07-06T13:51:25;25.00;57.80
44431;DHT22;30135;47.866;-4.222;2022-07-06T13:53:53;25.10;57.90
44431;DHT22;30135;47.866;-4.222;2022-07-06T13:56:19;25.10;57.80
44431;DHT22;30135;47.866;-4.222;2022-07-06T13:58:45;25.20;57.90
44431;DHT22;30135;47.866;-4.222;2022-07-06T14:01:12;25.30;57.80
44431;DHT22;30135;47.866;-4.222;2022-07-06T14:03:38;25.30;57.50
44431;DHT22;30135;47.866;-4.222;2022-07-06T14:06:05;25.40;57.50
44431;DHT22;30135;47.866;-4.222;2022-07-06T14:08:34;25.40;57.10
44431;DHT22;30135;47.866;-4.222;2022-07-06T14:11:02;25.50;57.40
44431;DHT22;30135;47.866;-4.222;2022-07-06T14:13:30;25.50;56.80
44431;DHT22;30135;47.866;-4.222;2022-07-06T14:15:58;25.50;56.70
44431;DHT22;30135;47.866;-4.222;2022-07-06T14:18:24;25.50;56.60
44431;DHT22;30135;47.866;-4.222;2022-07-06T14:20:51;25.50;56.80
44431;DHT22;30135;47.866;-4.222;2022-07-06T14:23:19;25.50;56.80
44431;DHT22;30135;47.866;-4.222;2022-07-06T14:25:46;25.60;57.10
44431;DHT22;30135;47.866;-4.222;2022-07-06T14:28:14;25.60;57.00
44431;DHT22;30135;47.866;-4.222;2022-07-06T14:30:43;25.70;57.20
44431;DHT22;30135;47.866;-4.222;2022-07-06T14:33:11;25.70;57.00
44431;DHT22;30135;47.866;-4.222;2022-07-06T14:35:44;25.60;56.60
44431;DHT22;30135;47.866;-4.222;2022-07-06T14:38:15;25.50;56.50
44431;DHT22;30135;47.866;-4.222;2022-07-06T14:40:41;25.50;56.60
44431;DHT22;30135;47.866;-4.222;2022-07-06T14:43:08;25.50;56.80
44431;DHT22;30135;47.866;-4.222;2022-07-06T14:45:34;25.40;56.70
44431;DHT22;30135;47.866;-4.222;2022-07-06T14:48:00;25.40;56.70
44431;DHT22;30135;47.866;-4.222;2022-07-06T14:50:27;25.30;56.80
44431;DHT22;30135;47.866;-4.222;2022-07-06T14:52:54;25.30;57.20
44431;DHT22;30135;47.866;-4.222;2022-07-06T14:55:21;25.20;57.50
44431;DHT22;30135;47.866;-4.222;2022-07-06T14:57:47;25.20;57.40
44431;DHT22;30135;47.866;-4.222;2022-07-06T15:00:14;25.30;57.50
44431;DHT22;30135;47.866;-4.222;2022-07-06T15:02:41;25.30;57.60
44431;DHT22;30135;47.866;-4.222;2022-07-06T15:05:08;25.30;57.30
44431;DHT22;30135;47.866;-4.222;2022-07-06T15:07:35;25.40;57.10
44431;DHT22;30135;47.866;-4.222;2022-07-06T15:10:01;25.30;57.30
44431;DHT22;30135;47.866;-4.222;2022-07-06T15:12:27;25.30;57.40
44431;DHT22;30135;47.866;-4.222;2022-07-06T15:14:53;25.30;57.50
44431;DHT22;30135;47.866;-4.222;2022-07-06T15:17:19;25.30;57.30
44431;DHT22;30135;47.866;-4.222;2022-07-06T15:19:45;25.40;57.20
44431;DHT22;30135;47.866;-4.222;2022-07-06T15:22:12;25.40;57.20
44431;DHT22;30135;47.866;-4.222;2022-07-06T15:24:38;25.40;57.20
44431;DHT22;30135;47.866;-4.222;2022-07-06T15:27:05;25.50;57.50
44431;DHT22;30135;47.866;-4.222;2022-07-06T15:29:31;25.50;57.60